sensor_id;sensor_type;location;lat;lon;timestamp;P1;durP1;ratioP1;P2;durP2;ratioP2
76548;SDS011;65391;52.068;4.542;2024-03-02T00:01:03;1.2;;;0.3;;
76548;SDS011;65391;52.068;4.542;2024-03-02T00:03:28;1.2;;;0.3;;
76548;SDS011;65391;52.068;4.542;2024-03-02T00:05:53;2.2;;;0.3;;
76548;SDS011;65391;52.068;4.542;2024-03-02T00:08:22;2.2;;;0.3;;
76548;SDS011;65391;52.068;4.542;2024-03-02T00:10:43;2.2;;;0.3;;
76548;SDS011;65391;52.068;4.542;2024-03-02T00:13:08;2.2;;;0.3;;
76548;SDS011;65391;52.068;4.542;2024-03-02T00:15:40;1.6;;;0.3;;
76548;SDS011;65391;52.068;4.542;2024-03-02T00:17:58;1.6;;;0.3;;
76548;SDS011;65391;52.068;4.542;2024-03-02T00:20:23;1.6;;;0.3;;
76548;SDS011;65391;52.068;4.542;2024-03-02T00:22:48;1.6;;;0.3;;
76548;SDS011;65391;52.068;4.542;2024-03-02T00:25:14;0.7;;;0.2;;
76548;SDS011;65391;52.068;4.542;2024-03-02T00:27:38;0.7;;;0.2;;
76548;SDS011;65391;52.068;4.542;2024-03-02T00:30:05;0.7;;;0.2;;
76548;SDS011;65391;52.068;4.542;2024-03-02T00:32:35;0.7;;;0.2;;
76548;SDS011;65391;52.068;4.542;2024-03-02T00:34:53;0.7;;;0.2;;
76548;SDS011;65391;52.068;4.542;2024-03-02T00:37:18;0.5;;;0.3;;
76548;SDS011;65391;52.068;4.542;2024-03-02T00:39:43;0.5;;;0.3;;
76548;SDS011;65391;52.068;4.542;2024-03-02T00:42:08;0.5;;;0.3;;
76548;SDS011;65391;52.068;4.542;2024-03-02T00:44:33;0.5;;;0.3;;
76548;SDS011;65391;52.068;4.542;2024-03-02T00:46:58;0.6;;;0.2;;
76548;SDS011;65391;52.068;4.542;2024-03-02T00:49:24;0.6;;;0.2;;
76548;SDS011;65391;52.068;4.542;2024-03-02T00:51:49;0.6;;;0.2;;
76548;SDS011;65391;52.068;4.542;2024-03-02T00:54:13;0.6;;;0.2;;
76548;SDS011;65391;52.068;4.542;2024-03-02T00:56:39;1.4;;;0.3;;
76548;SDS011;65391;52.068;4.542;2024-03-02T00:59:03;1.4;;;0.3;;
76548;SDS011;65391;52.068;4.542;2024-03-02T01:01:28;1.4;;;0.3;;
76548;SDS011;65391;52.068;4.542;2024-03-02T01:03:53;1.4;;;0.3;;
76548;SDS011;65391;52.068;4.542;2024-03-02T01:06:18;1.1;;;0.2;;
76548;SDS011;65391;52.068;4.542;2024-03-02T01:08:43;1.1;;;0.2;;
76548;SDS011;65391;52.068;4.542;2024-03-02T01:11:08;1.1;;;0.2;;
76548;SDS011;65391;52.068;4.542;2024-03-02T01:13:33;1.1;;;0.2;;
76548;SDS011;65391;52.068;4.542;2024-03-02T01:15:58;0.6;;;0.3;;
76548;SDS011;65391;52.068;4.542;2024-03-02T01:18:23;0.6;;;0.3;;
76548;SDS011;65391;52.068;4.542;2024-03-02T01:20:48;0.6;;;0.3;;
76548;SDS011;65391;52.068;4.542;2024-03-02T01:23:13;0.6;;;0.3;;
76548;SDS011;65391;52.068;4.542;2024-03-02T01:25:38;1;;;0.3;;
76548;SDS011;65391;52.068;4.542;2024-03-02T01:28:04;1;;;0.3;;
76548;SDS011;65391;52.068;4.542;2024-03-02T01:30:28;1;;;0.3;;
76548;SDS011;65391;52.068;4.542;2024-03-02T01:32:56;1;;;0.3;;
76548;SDS011;65391;52.068;4.542;2024-03-02T01:35:18;1.6;;;0.3;;
76548;SDS011;65391;52.068;4.542;2024-03-02T01:37:43;1.6;;;0.3;;
76548;SDS011;65391;52.068;4.542;2024-03-02T01:40:09;1.6;;;0.3;;
76548;SDS011;65391;52.068;4.542;2024-03-02T01:42:33;1.6;;;0.3;;
76548;SDS011;65391;52.068;4.542;2024-03-02T01:44:58;1.6;;;0.3;;
76548;SDS011;65391;52.068;4.542;2024-03-02T01:47:23;1.7;;;0.4;;
76548;SDS011;65391;52.068;4.542;2024-03-02T01:49:48;1.7;;;0.4;;
76548;SDS011;65391;52.068;4.542;2024-03-02T01:52:13;1.7;;;0.4;;
76548;SDS011;65391;52.068;4.542;2024-03-02T01:54:38;1.7;;;0.4;;
76548;SDS011;65391;52.068;4.542;2024-03-02T01:57:04;1.6;;;0.9;;
76548;SDS011;65391;52.068;4.542;2024-03-02T01:59:28;1.6;;;0.9;;
76548;SDS011;65391;52.068;4.542;2024-03-02T02:01:53;1.6;;;0.9;;
76548;SDS011;65391;52.068;4.542;2024-03-02T02:04:18;1.6;;;0.9;;
76548;SDS011;65391;52.068;4.542;2024-03-02T02:06:43;4;;;1.4;;
76548;SDS011;65391;52.068;4.542;2024-03-02T02:09:08;4;;;1.4;;
76548;SDS011;65391;52.068;4.542;2024-03-02T02:11:33;4;;;1.4;;
76548;SDS011;65391;52.068;4.542;2024-03-02T02:13:58;4;;;1.4;;
76548;SDS011;65391;52.068;4.542;2024-03-02T02:16:23;2.3;;;1;;
76548;SDS011;65391;52.068;4.542;2024-03-02T02:18:48;2.3;;;1;;
76548;SDS011;65391;52.068;4.542;2024-03-02T02:21:13;2.3;;;1;;
76548;SDS011;65391;52.068;4.542;2024-03-02T02:23:38;2.3;;;1;;
76548;SDS011;65391;52.068;4.542;2024-03-02T02:26:03;3.1;;;1.5;;
76548;SDS011;65391;52.068;4.542;2024-03-02T02:28:28;3.1;;;1.5;;
76548;SDS011;65391;52.068;4.542;2024-03-02T02:30:54;3.1;;;1.5;;
76548;SDS011;65391;52.068;4.542;2024-03-02T02:33:18;3.1;;;1.5;;
76548;SDS011;65391;52.068;4.542;2024-03-02T02:35:43;2;;;1.2;;
76548;SDS011;65391;52.068;4.542;2024-03-02T02:38:08;2;;;1.2;;
76548;SDS011;65391;52.068;4.542;2024-03-02T02:40:33;2;;;1.2;;
76548;SDS011;65391;52.068;4.542;2024-03-02T02:42:58;2;;;1.2;;
76548;SDS011;65391;52.068;4.542;2024-03-02T02:45:23;2;;;1.2;;
76548;SDS011;65391;52.068;4.542;2024-03-02T02:47:48;2.5;;;1.2;;
76548;SDS011;65391;52.068;4.542;2024-03-02T02:50:13;2.5;;;1.2;;
76548;SDS011;65391;52.068;4.542;2024-03-02T02:52:41;2.5;;;1.2;;
76548;SDS011;65391;52.068;4.542;2024-03-02T02:55:04;2.5;;;1.2;;
76548;SDS011;65391;52.068;4.542;2024-03-02T02:57:28;2;;;0.8;;
76548;SDS011;65391;52.068;4.542;2024-03-02T02:59:53;2;;;0.8;;
76548;SDS011;65391;52.068;4.542;2024-03-02T03:02:18;2;;;0.8;;
76548;SDS011;65391;52.068;4.542;2024-03-02T03:04:43;2;;;0.8;;
76548;SDS011;65391;52.068;4.542;2024-03-02T03:07:08;1.4;;;0.8;;
76548;SDS011;65391;52.068;4.542;2024-03-02T03:09:33;1.4;;;0.8;;
76548;SDS011;65391;52.068;4.542;2024-03-02T03:11:58;1.4;;;0.8;;
76548;SDS011;65391;52.068;4.542;2024-03-02T03:14:23;1.4;;;0.8;;
76548;SDS011;65391;52.068;4.542;2024-03-02T03:16:48;1.5;;;0.7;;
76548;SDS011;65391;52.068;4.542;2024-03-02T03:19:13;1.5;;;0.7;;
76548;SDS011;65391;52.068;4.542;2024-03-02T03:21:38;1.5;;;0.7;;
76548;SDS011;65391;52.068;4.542;2024-03-02T03:24:04;1.5;;;0.7;;
76548;SDS011;65391;52.068;4.542;2024-03-02T03:26:28;1.4;;;0.9;;
76548;SDS011;65391;52.068;4.542;2024-03-02T03:28:53;1.4;;;0.9;;
76548;SDS011;65391;52.068;4.542;2024-03-02T03:31:18;1.4;;;0.9;;
76548;SDS011;65391;52.068;4.542;2024-03-02T03:33:43;1.4;;;0.9;;
76548;SDS011;65391;52.068;4.542;2024-03-02T03:36:08;2.3;;;0.8;;
76548;SDS011;65391;52.068;4.542;2024-03-02T03:38:34;2.3;;;0.8;;
76548;SDS011;65391;52.068;4.542;2024-03-02T03:40:58;2.3;;;0.8;;
76548;SDS011;65391;52.068;4.542;2024-03-02T03:43:23;2.3;;;0.8;;
76548;SDS011;65391;52.068;4.542;2024-03-02T03:45:48;1.4;;;0.8;;
76548;SDS011;65391;52.068;4.542;2024-03-02T03:48:13;1.4;;;0.8;;
76548;SDS011;65391;52.068;4.542;2024-03-02T03:50:38;1.4;;;0.8;;
76548;SDS011;65391;52.068;4.542;2024-03-02T03:53:03;1.4;;;0.8;;
76548;SDS011;65391;52.068;4.542;2024-03-02T03:55:28;1.4;;;0.8;;
76548;SDS011;65391;52.068;4.542;2024-03-02T03:57:53;1.3;;;0.6;;
76548;SDS011;65391;52.068;4.542;2024-03-02T04:00:21;1.3;;;0.6;;
76548;SDS011;65391;52.068;4.542;2024-03-02T04:02:43;1.3;;;0.6;;
76548;SDS011;65391;52.068;4.542;2024-03-02T04:05:08;1.3;;;0.6;;
76548;SDS011;65391;52.068;4.542;2024-03-02T04:07:33;1.5;;;0.7;;
76548;SDS011;65391;52.068;4.542;2024-03-02T04:09:58;1.5;;;0.7;;
76548;SDS011;65391;52.068;4.542;2024-03-02T04:12:23;1.5;;;0.7;;
76548;SDS011;65391;52.068;4.542;2024-03-02T04:14:49;1.5;;;0.7;;
76548;SDS011;65391;52.068;4.542;2024-03-02T04:17:13;1.9;;;0.9;;
76548;SDS011;65391;52.068;4.542;2024-03-02T04:19:38;1.9;;;0.9;;
76548;SDS011;65391;52.068;4.542;2024-03-02T04:22:04;1.9;;;0.9;;
76548;SDS011;65391;52.068;4.542;2024-03-02T04:24:28;1.9;;;0.9;;
76548;SDS011;65391;52.068;4.542;2024-03-02T04:26:53;1.5;;;0.7;;
76548;SDS011;65391;52.068;4.542;2024-03-02T04:29:18;1.5;;;0.7;;
76548;SDS011;65391;52.068;4.542;2024-03-02T04:31:43;1.5;;;0.7;;
76548;SDS011;65391;52.068;4.542;2024-03-02T04:34:08;1.5;;;0.7;;
76548;SDS011;65391;52.068;4.542;2024-03-02T04:36:33;2;;;0.6;;
76548;SDS011;65391;52.068;4.542;2024-03-02T04:38:58;2;;;0.6;;
76548;SDS011;65391;52.068;4.542;2024-03-02T04:41:23;2;;;0.6;;
76548;SDS011;65391;52.068;4.542;2024-03-02T04:43:48;2;;;0.6;;
76548;SDS011;65391;52.068;4.542;2024-03-02T04:46:13;1.2;;;0.6;;
76548;SDS011;65391;52.068;4.542;2024-03-02T04:48:38;1.2;;;0.6;;
76548;SDS011;65391;52.068;4.542;2024-03-02T04:51:03;1.2;;;0.6;;
76548;SDS011;65391;52.068;4.542;2024-03-02T04:53:28;1.2;;;0.6;;
76548;SDS011;65391;52.068;4.542;2024-03-02T04:55:53;2.9;;;0.8;;
76548;SDS011;65391;52.068;4.542;2024-03-02T04:58:18;2.9;;;0.8;;
76548;SDS011;65391;52.068;4.542;2024-03-02T05:00:43;2.9;;;0.8;;
76548;SDS011;65391;52.068;4.542;2024-03-02T05:03:11;2.9;;;0.8;;
76548;SDS011;65391;52.068;4.542;2024-03-02T05:05:33;2.9;;;0.8;;
76548;SDS011;65391;52.068;4.542;2024-03-02T05:07:58;4.5;;;0.8;;
76548;SDS011;65391;52.068;4.542;2024-03-02T05:10:23;4.5;;;0.8;;
76548;SDS011;65391;52.068;4.542;2024-03-02T05:12:48;4.5;;;0.8;;
76548;SDS011;65391;52.068;4.542;2024-03-02T05:15:14;4.5;;;0.8;;
76548;SDS011;65391;52.068;4.542;2024-03-02T05:17:39;5.2;;;1.3;;
76548;SDS011;65391;52.068;4.542;2024-03-02T05:20:04;5.2;;;1.3;;
76548;SDS011;65391;52.068;4.542;2024-03-02T05:22:28;5.2;;;1.3;;
76548;SDS011;65391;52.068;4.542;2024-03-02T05:24:53;5.2;;;1.3;;
76548;SDS011;65391;52.068;4.542;2024-03-02T05:27:18;1.6;;;0.5;;
76548;SDS011;65391;52.068;4.542;2024-03-02T05:29:43;1.6;;;0.5;;
76548;SDS011;65391;52.068;4.542;2024-03-02T05:32:08;1.6;;;0.5;;
76548;SDS011;65391;52.068;4.542;2024-03-02T05:34:33;1.6;;;0.5;;
76548;SDS011;65391;52.068;4.542;2024-03-02T05:36:58;2.3;;;1;;
76548;SDS011;65391;52.068;4.542;2024-03-02T05:39:23;2.3;;;1;;
76548;SDS011;65391;52.068;4.542;2024-03-02T05:41:48;2.3;;;1;;
76548;SDS011;65391;52.068;4.542;2024-03-02T05:44:13;2.3;;;1;;
76548;SDS011;65391;52.068;4.542;2024-03-02T05:46:38;1.7;;;0.7;;
76548;SDS011;65391;52.068;4.542;2024-03-02T05:49:03;1.7;;;0.7;;
76548;SDS011;65391;52.068;4.542;2024-03-02T05:51:28;1.7;;;0.7;;
76548;SDS011;65391;52.068;4.542;2024-03-02T05:53:53;1.7;;;0.7;;
76548;SDS011;65391;52.068;4.542;2024-03-02T05:56:18;2.5;;;0.5;;
76548;SDS011;65391;52.068;4.542;2024-03-02T05:58:43;2.5;;;0.5;;
76548;SDS011;65391;52.068;4.542;2024-03-02T06:01:08;2.5;;;0.5;;
76548;SDS011;65391;52.068;4.542;2024-03-02T06:03:33;2.5;;;0.5;;
76548;SDS011;65391;52.068;4.542;2024-03-02T06:05:58;2.6;;;0.5;;
76548;SDS011;65391;52.068;4.542;2024-03-02T06:08:23;2.6;;;0.5;;
76548;SDS011;65391;52.068;4.542;2024-03-02T06:10:48;2.6;;;0.5;;
76548;SDS011;65391;52.068;4.542;2024-03-02T06:13:13;2.6;;;0.5;;
76548;SDS011;65391;52.068;4.542;2024-03-02T06:15:38;2.6;;;0.5;;
76548;SDS011;65391;52.068;4.542;2024-03-02T06:18:04;1.1;;;0.6;;
76548;SDS011;65391;52.068;4.542;2024-03-02T06:20:28;1.1;;;0.6;;
76548;SDS011;65391;52.068;4.542;2024-03-02T06:22:53;1.1;;;0.6;;
76548;SDS011;65391;52.068;4.542;2024-03-02T06:25:18;1.1;;;0.6;;
76548;SDS011;65391;52.068;4.542;2024-03-02T06:27:43;2.1;;;0.4;;
76548;SDS011;65391;52.068;4.542;2024-03-02T06:30:09;2.1;;;0.4;;
76548;SDS011;65391;52.068;4.542;2024-03-02T06:32:33;2.1;;;0.4;;
76548;SDS011;65391;52.068;4.542;2024-03-02T06:34:58;2.1;;;0.4;;
76548;SDS011;65391;52.068;4.542;2024-03-02T06:37:23;3;;;0.7;;
76548;SDS011;65391;52.068;4.542;2024-03-02T06:39:48;3;;;0.7;;
76548;SDS011;65391;52.068;4.542;2024-03-02T06:42:13;3;;;0.7;;
76548;SDS011;65391;52.068;4.542;2024-03-02T06:44:38;3;;;0.7;;
76548;SDS011;65391;52.068;4.542;2024-03-02T06:47:04;2.7;;;0.5;;
76548;SDS011;65391;52.068;4.542;2024-03-02T06:49:28;2.7;;;0.5;;
76548;SDS011;65391;52.068;4.542;2024-03-02T06:51:53;2.7;;;0.5;;
76548;SDS011;65391;52.068;4.542;2024-03-02T06:54:18;2.7;;;0.5;;
76548;SDS011;65391;52.068;4.542;2024-03-02T06:56:43;3.8;;;0.6;;
76548;SDS011;65391;52.068;4.542;2024-03-02T06:59:08;3.8;;;0.6;;
76548;SDS011;65391;52.068;4.542;2024-03-02T07:01:33;3.8;;;0.6;;
76548;SDS011;65391;52.068;4.542;2024-03-02T07:03:58;3.8;;;0.6;;
76548;SDS011;65391;52.068;4.542;2024-03-02T07:06:23;4.3;;;0.6;;
76548;SDS011;65391;52.068;4.542;2024-03-02T07:08:48;4.3;;;0.6;;
76548;SDS011;65391;52.068;4.542;2024-03-02T07:11:13;4.3;;;0.6;;
76548;SDS011;65391;52.068;4.542;2024-03-02T07:13:38;4.3;;;0.6;;
76548;SDS011;65391;52.068;4.542;2024-03-02T07:16:04;2;;;0.6;;
76548;SDS011;65391;52.068;4.542;2024-03-02T07:18:28;2;;;0.6;;
76548;SDS011;65391;52.068;4.542;2024-03-02T07:20:53;2;;;0.6;;
76548;SDS011;65391;52.068;4.542;2024-03-02T07:23:18;2;;;0.6;;
76548;SDS011;65391;52.068;4.542;2024-03-02T07:25:43;2;;;0.6;;
76548;SDS011;65391;52.068;4.542;2024-03-02T07:28:08;1.2;;;0.4;;
76548;SDS011;65391;52.068;4.542;2024-03-02T07:30:33;1.2;;;0.4;;
76548;SDS011;65391;52.068;4.542;2024-03-02T07:32:58;1.2;;;0.4;;
76548;SDS011;65391;52.068;4.542;2024-03-02T07:35:24;1.2;;;0.4;;
76548;SDS011;65391;52.068;4.542;2024-03-02T07:37:48;1.6;;;0.5;;
76548;SDS011;65391;52.068;4.542;2024-03-02T07:40:14;1.6;;;0.5;;
76548;SDS011;65391;52.068;4.542;2024-03-02T07:42:38;1.6;;;0.5;;
76548;SDS011;65391;52.068;4.542;2024-03-02T07:45:04;1.6;;;0.5;;
76548;SDS011;65391;52.068;4.542;2024-03-02T07:47:28;3.1;;;0.7;;
76548;SDS011;65391;52.068;4.542;2024-03-02T07:49:56;3.1;;;0.7;;
76548;SDS011;65391;52.068;4.542;2024-03-02T07:52:18;3.1;;;0.7;;
76548;SDS011;65391;52.068;4.542;2024-03-02T07:54:43;3.1;;;0.7;;
76548;SDS011;65391;52.068;4.542;2024-03-02T07:57:08;2.2;;;0.5;;
76548;SDS011;65391;52.068;4.542;2024-03-02T07:59:33;2.2;;;0.5;;
76548;SDS011;65391;52.068;4.542;2024-03-02T08:01:58;2.2;;;0.5;;
76548;SDS011;65391;52.068;4.542;2024-03-02T08:04:23;2.2;;;0.5;;
76548;SDS011;65391;52.068;4.542;2024-03-02T08:06:48;2.2;;;0.8;;
76548;SDS011;65391;52.068;4.542;2024-03-02T08:09:13;2.2;;;0.8;;
76548;SDS011;65391;52.068;4.542;2024-03-02T08:11:38;2.2;;;0.8;;
76548;SDS011;65391;52.068;4.542;2024-03-02T08:14:03;2.2;;;0.8;;
76548;SDS011;65391;52.068;4.542;2024-03-02T08:16:28;1.9;;;0.7;;
76548;SDS011;65391;52.068;4.542;2024-03-02T08:18:53;1.9;;;0.7;;
76548;SDS011;65391;52.068;4.542;2024-03-02T08:21:18;1.9;;;0.7;;
76548;SDS011;65391;52.068;4.542;2024-03-02T08:23:43;1.9;;;0.7;;
76548;SDS011;65391;52.068;4.542;2024-03-02T08:26:08;3.7;;;0.9;;
76548;SDS011;65391;52.068;4.542;2024-03-02T08:28:33;3.7;;;0.9;;
76548;SDS011;65391;52.068;4.542;2024-03-02T08:30:58;3.7;;;0.9;;
76548;SDS011;65391;52.068;4.542;2024-03-02T08:33:23;3.7;;;0.9;;
76548;SDS011;65391;52.068;4.542;2024-03-02T08:35:48;3.7;;;0.9;;
76548;SDS011;65391;52.068;4.542;2024-03-02T08:38:13;3.1;;;0.8;;
76548;SDS011;65391;52.068;4.542;2024-03-02T08:40:38;3.1;;;0.8;;
76548;SDS011;65391;52.068;4.542;2024-03-02T08:43:03;3.1;;;0.8;;
76548;SDS011;65391;52.068;4.542;2024-03-02T08:45:28;3.1;;;0.8;;
76548;SDS011;65391;52.068;4.542;2024-03-02T08:47:53;4.1;;;0.7;;
76548;SDS011;65391;52.068;4.542;2024-03-02T08:50:18;4.1;;;0.7;;
76548;SDS011;65391;52.068;4.542;2024-03-02T08:52:43;4.1;;;0.7;;
76548;SDS011;65391;52.068;4.542;2024-03-02T08:55:08;4.1;;;0.7;;
76548;SDS011;65391;52.068;4.542;2024-03-02T08:57:33;4.8;;;0.7;;
76548;SDS011;65391;52.068;4.542;2024-03-02T08:59:58;4.8;;;0.7;;
76548;SDS011;65391;52.068;4.542;2024-03-02T09:02:23;4.8;;;0.7;;
76548;SDS011;65391;52.068;4.542;2024-03-02T09:04:48;4.8;;;0.7;;
76548;SDS011;65391;52.068;4.542;2024-03-02T09:07:13;0.9;;;0.4;;
76548;SDS011;65391;52.068;4.542;2024-03-02T09:09:38;0.9;;;0.4;;
76548;SDS011;65391;52.068;4.542;2024-03-02T09:12:04;0.9;;;0.4;;
76548;SDS011;65391;52.068;4.542;2024-03-02T09:14:28;0.9;;;0.4;;
76548;SDS011;65391;52.068;4.542;2024-03-02T09:16:53;1.9;;;0.6;;
76548;SDS011;65391;52.068;4.542;2024-03-02T09:19:18;1.9;;;0.6;;
76548;SDS011;65391;52.068;4.542;2024-03-02T09:21:43;1.9;;;0.6;;
76548;SDS011;65391;52.068;4.542;2024-03-02T09:24:08;1.9;;;0.6;;
76548;SDS011;65391;52.068;4.542;2024-03-02T09:26:33;3.3;;;0.5;;
76548;SDS011;65391;52.068;4.542;2024-03-02T09:28:58;3.3;;;0.5;;
76548;SDS011;65391;52.068;4.542;2024-03-02T09:31:23;3.3;;;0.5;;
76548;SDS011;65391;52.068;4.542;2024-03-02T09:33:48;3.3;;;0.5;;
76548;SDS011;65391;52.068;4.542;2024-03-02T09:36:17;4.3;;;0.9;;
76548;SDS011;65391;52.068;4.542;2024-03-02T09:38:38;4.3;;;0.9;;
76548;SDS011;65391;52.068;4.542;2024-03-02T09:41:03;4.3;;;0.9;;
76548;SDS011;65391;52.068;4.542;2024-03-02T09:43:28;4.3;;;0.9;;
76548;SDS011;65391;52.068;4.542;2024-03-02T09:45:54;4.3;;;0.9;;
76548;SDS011;65391;52.068;4.542;2024-03-02T09:48:18;3;;;1;;
76548;SDS011;65391;52.068;4.542;2024-03-02T09:50:43;3;;;1;;
76548;SDS011;65391;52.068;4.542;2024-03-02T09:53:08;3;;;1;;
76548;SDS011;65391;52.068;4.542;2024-03-02T09:55:33;3;;;1;;
76548;SDS011;65391;52.068;4.542;2024-03-02T09:57:58;3.9;;;0.8;;
76548;SDS011;65391;52.068;4.542;2024-03-02T10:00:23;3.9;;;0.8;;
76548;SDS011;65391;52.068;4.542;2024-03-02T10:02:48;3.9;;;0.8;;
76548;SDS011;65391;52.068;4.542;2024-03-02T10:05:13;3.9;;;0.8;;
76548;SDS011;65391;52.068;4.542;2024-03-02T10:07:38;3.1;;;0.8;;
76548;SDS011;65391;52.068;4.542;2024-03-02T10:10:12;3.1;;;0.8;;
76548;SDS011;65391;52.068;4.542;2024-03-02T10:12:28;3.1;;;0.8;;
76548;SDS011;65391;52.068;4.542;2024-03-02T10:15:02;3.1;;;0.8;;
76548;SDS011;65391;52.068;4.542;2024-03-02T10:17:18;5.1;;;1;;
76548;SDS011;65391;52.068;4.542;2024-03-02T10:19:43;5.1;;;1;;
76548;SDS011;65391;52.068;4.542;2024-03-02T10:22:09;5.1;;;1;;
76548;SDS011;65391;52.068;4.542;2024-03-02T10:24:35;5.1;;;1;;
76548;SDS011;65391;52.068;4.542;2024-03-02T10:26:58;3.3;;;0.9;;
76548;SDS011;65391;52.068;4.542;2024-03-02T10:29:23;3.3;;;0.9;;
76548;SDS011;65391;52.068;4.542;2024-03-02T10:31:48;3.3;;;0.9;;
76548;SDS011;65391;52.068;4.542;2024-03-02T10:34:14;3.3;;;0.9;;
76548;SDS011;65391;52.068;4.542;2024-03-02T10:36:41;3.5;;;0.7;;
76548;SDS011;65391;52.068;4.542;2024-03-02T10:39:04;3.5;;;0.7;;
76548;SDS011;65391;52.068;4.542;2024-03-02T10:41:28;3.5;;;0.7;;
76548;SDS011;65391;52.068;4.542;2024-03-02T10:43:53;3.5;;;0.7;;
76548;SDS011;65391;52.068;4.542;2024-03-02T10:46:18;2.6;;;0.8;;
76548;SDS011;65391;52.068;4.542;2024-03-02T10:48:43;2.6;;;0.8;;
76548;SDS011;65391;52.068;4.542;2024-03-02T10:51:08;2.6;;;0.8;;
76548;SDS011;65391;52.068;4.542;2024-03-02T10:53:33;2.6;;;0.8;;
76548;SDS011;65391;52.068;4.542;2024-03-02T10:55:58;2.6;;;0.8;;
76548;SDS011;65391;52.068;4.542;2024-03-02T10:58:24;8.4;;;0.9;;
76548;SDS011;65391;52.068;4.542;2024-03-02T11:00:48;8.4;;;0.9;;
76548;SDS011;65391;52.068;4.542;2024-03-02T11:03:13;8.4;;;0.9;;
76548;SDS011;65391;52.068;4.542;2024-03-02T11:05:40;8.4;;;0.9;;
76548;SDS011;65391;52.068;4.542;2024-03-02T11:08:06;6.1;;;1;;
76548;SDS011;65391;52.068;4.542;2024-03-02T11:10:33;6.1;;;1;;
76548;SDS011;65391;52.068;4.542;2024-03-02T11:12:56;6.1;;;1;;
76548;SDS011;65391;52.068;4.542;2024-03-02T11:15:18;6.1;;;1;;
76548;SDS011;65391;52.068;4.542;2024-03-02T11:17:46;3.6;;;0.9;;
76548;SDS011;65391;52.068;4.542;2024-03-02T11:20:09;3.6;;;0.9;;
76548;SDS011;65391;52.068;4.542;2024-03-02T11:22:33;3.6;;;0.9;;
76548;SDS011;65391;52.068;4.542;2024-03-02T11:24:59;3.6;;;0.9;;
76548;SDS011;65391;52.068;4.542;2024-03-02T11:28:35;2.5;;;0.8;;
76548;SDS011;65391;52.068;4.542;2024-03-02T11:29:48;2.5;;;0.8;;
76548;SDS011;65391;52.068;4.542;2024-03-02T11:32:15;2.5;;;0.8;;
76548;SDS011;65391;52.068;4.542;2024-03-02T11:34:38;2.5;;;0.8;;
76548;SDS011;65391;52.068;4.542;2024-03-02T11:37:04;6.9;;;1.1;;
76548;SDS011;65391;52.068;4.542;2024-03-02T11:39:29;6.9;;;1.1;;
76548;SDS011;65391;52.068;4.542;2024-03-02T11:41:53;6.9;;;1.1;;
76548;SDS011;65391;52.068;4.542;2024-03-02T11:44:18;6.9;;;1.1;;
76548;SDS011;65391;52.068;4.542;2024-03-02T11:46:44;4.6;;;1;;
76548;SDS011;65391;52.068;4.542;2024-03-02T11:49:08;4.6;;;1;;
76548;SDS011;65391;52.068;4.542;2024-03-02T11:51:34;4.6;;;1;;
76548;SDS011;65391;52.068;4.542;2024-03-02T11:53:58;4.6;;;1;;
76548;SDS011;65391;52.068;4.542;2024-03-02T11:56:23;2.6;;;0.8;;
76548;SDS011;65391;52.068;4.542;2024-03-02T11:58:48;2.6;;;0.8;;
76548;SDS011;65391;52.068;4.542;2024-03-02T12:01:13;2.6;;;0.8;;
76548;SDS011;65391;52.068;4.542;2024-03-02T12:03:38;2.6;;;0.8;;
76548;SDS011;65391;52.068;4.542;2024-03-02T12:06:04;2.6;;;0.8;;
76548;SDS011;65391;52.068;4.542;2024-03-02T12:08:28;7;;;1.2;;
76548;SDS011;65391;52.068;4.542;2024-03-02T12:10:58;7;;;1.2;;
76548;SDS011;65391;52.068;4.542;2024-03-02T12:13:18;7;;;1.2;;
76548;SDS011;65391;52.068;4.542;2024-03-02T12:15:43;7;;;1.2;;
76548;SDS011;65391;52.068;4.542;2024-03-02T12:18:08;3.2;;;1;;
76548;SDS011;65391;52.068;4.542;2024-03-02T12:20:33;3.2;;;1;;
76548;SDS011;65391;52.068;4.542;2024-03-02T12:22:59;3.2;;;1;;
76548;SDS011;65391;52.068;4.542;2024-03-02T12:25:24;3.2;;;1;;
76548;SDS011;65391;52.068;4.542;2024-03-02T12:27:50;5;;;0.7;;
76548;SDS011;65391;52.068;4.542;2024-03-02T12:30:13;5;;;0.7;;
76548;SDS011;65391;52.068;4.542;2024-03-02T12:32:38;5;;;0.7;;
76548;SDS011;65391;52.068;4.542;2024-03-02T12:35:04;5;;;0.7;;
76548;SDS011;65391;52.068;4.542;2024-03-02T12:37:28;4.1;;;1;;
76548;SDS011;65391;52.068;4.542;2024-03-02T12:39:53;4.1;;;1;;
76548;SDS011;65391;52.068;4.542;2024-03-02T12:42:18;4.1;;;1;;
76548;SDS011;65391;52.068;4.542;2024-03-02T12:44:43;4.1;;;1;;
76548;SDS011;65391;52.068;4.542;2024-03-02T12:47:08;5.2;;;1.2;;
76548;SDS011;65391;52.068;4.542;2024-03-02T12:49:33;5.2;;;1.2;;
76548;SDS011;65391;52.068;4.542;2024-03-02T12:51:58;5.2;;;1.2;;
76548;SDS011;65391;52.068;4.542;2024-03-02T12:54:23;5.2;;;1.2;;
76548;SDS011;65391;52.068;4.542;2024-03-02T12:56:48;5.8;;;0.9;;
76548;SDS011;65391;52.068;4.542;2024-03-02T12:59:17;5.8;;;0.9;;
76548;SDS011;65391;52.068;4.542;2024-03-02T13:01:38;5.8;;;0.9;;
76548;SDS011;65391;52.068;4.542;2024-03-02T13:04:03;5.8;;;0.9;;
76548;SDS011;65391;52.068;4.542;2024-03-02T13:06:28;4.9;;;1;;
76548;SDS011;65391;52.068;4.542;2024-03-02T13:08:53;4.9;;;1;;
76548;SDS011;65391;52.068;4.542;2024-03-02T13:11:18;4.9;;;1;;
76548;SDS011;65391;52.068;4.542;2024-03-02T13:13:43;4.9;;;1;;
76548;SDS011;65391;52.068;4.542;2024-03-02T13:16:09;4.9;;;1;;
76548;SDS011;65391;52.068;4.542;2024-03-02T13:18:33;3.3;;;0.6;;
76548;SDS011;65391;52.068;4.542;2024-03-02T13:20:58;3.3;;;0.6;;
76548;SDS011;65391;52.068;4.542;2024-03-02T13:23:23;3.3;;;0.6;;
76548;SDS011;65391;52.068;4.542;2024-03-02T13:25:48;3.3;;;0.6;;
76548;SDS011;65391;52.068;4.542;2024-03-02T13:28:13;3.8;;;0.6;;
76548;SDS011;65391;52.068;4.542;2024-03-02T13:30:38;3.8;;;0.6;;
76548;SDS011;65391;52.068;4.542;2024-03-02T13:33:04;3.8;;;0.6;;
76548;SDS011;65391;52.068;4.542;2024-03-02T13:35:28;3.8;;;0.6;;
76548;SDS011;65391;52.068;4.542;2024-03-02T13:37:53;2.8;;;0.7;;
76548;SDS011;65391;52.068;4.542;2024-03-02T13:40:18;2.8;;;0.7;;
76548;SDS011;65391;52.068;4.542;2024-03-02T13:42:43;2.8;;;0.7;;
76548;SDS011;65391;52.068;4.542;2024-03-02T13:45:08;2.8;;;0.7;;
76548;SDS011;65391;52.068;4.542;2024-03-02T13:47:33;3.7;;;0.8;;
76548;SDS011;65391;52.068;4.542;2024-03-02T13:49:58;3.7;;;0.8;;
76548;SDS011;65391;52.068;4.542;2024-03-02T13:52:23;3.7;;;0.8;;
76548;SDS011;65391;52.068;4.542;2024-03-02T13:54:48;3.7;;;0.8;;
76548;SDS011;65391;52.068;4.542;2024-03-02T13:57:14;3.2;;;1.2;;
76548;SDS011;65391;52.068;4.542;2024-03-02T13:59:40;3.2;;;1.2;;
76548;SDS011;65391;52.068;4.542;2024-03-02T14:02:04;3.2;;;1.2;;
76548;SDS011;65391;52.068;4.542;2024-03-02T14:04:30;3.2;;;1.2;;
76548;SDS011;65391;52.068;4.542;2024-03-02T14:06:53;3.8;;;0.8;;
76548;SDS011;65391;52.068;4.542;2024-03-02T14:09:18;3.8;;;0.8;;
76548;SDS011;65391;52.068;4.542;2024-03-02T14:11:43;3.8;;;0.8;;
76548;SDS011;65391;52.068;4.542;2024-03-02T14:14:08;3.8;;;0.8;;
76548;SDS011;65391;52.068;4.542;2024-03-02T14:16:34;3.1;;;0.8;;
76548;SDS011;65391;52.068;4.542;2024-03-02T14:18:59;3.1;;;0.8;;
76548;SDS011;65391;52.068;4.542;2024-03-02T14:21:23;3.1;;;0.8;;
76548;SDS011;65391;52.068;4.542;2024-03-02T14:23:48;3.1;;;0.8;;
76548;SDS011;65391;52.068;4.542;2024-03-02T14:26:13;3.1;;;0.8;;
76548;SDS011;65391;52.068;4.542;2024-03-02T14:28:38;4.7;;;0.8;;
76548;SDS011;65391;52.068;4.542;2024-03-02T14:31:04;4.7;;;0.8;;
76548;SDS011;65391;52.068;4.542;2024-03-02T14:33:28;4.7;;;0.8;;
76548;SDS011;65391;52.068;4.542;2024-03-02T14:35:53;4.7;;;0.8;;
76548;SDS011;65391;52.068;4.542;2024-03-02T14:38:18;1.7;;;0.7;;
76548;SDS011;65391;52.068;4.542;2024-03-02T14:40:44;1.7;;;0.7;;
76548;SDS011;65391;52.068;4.542;2024-03-02T14:43:08;1.7;;;0.7;;
76548;SDS011;65391;52.068;4.542;2024-03-02T14:45:33;1.7;;;0.7;;
76548;SDS011;65391;52.068;4.542;2024-03-02T14:47:59;6;;;1.3;;
76548;SDS011;65391;52.068;4.542;2024-03-02T14:50:23;6;;;1.3;;
76548;SDS011;65391;52.068;4.542;2024-03-02T14:52:48;6;;;1.3;;
76548;SDS011;65391;52.068;4.542;2024-03-02T14:55:14;6;;;1.3;;
76548;SDS011;65391;52.068;4.542;2024-03-02T14:57:38;6.2;;;1.3;;
76548;SDS011;65391;52.068;4.542;2024-03-02T15:00:04;6.2;;;1.3;;
76548;SDS011;65391;52.068;4.542;2024-03-02T15:02:28;6.2;;;1.3;;
76548;SDS011;65391;52.068;4.542;2024-03-02T15:04:54;6.2;;;1.3;;
76548;SDS011;65391;52.068;4.542;2024-03-02T15:07:18;3.7;;;1.3;;